sensor_id;sensor_type;location;lat;lon;timestamp;temperature;humidity
37646;DHT22;23489;49.600;6.138;2022-11-20T00:01:23;7.20;99.90
37646;DHT22;23489;49.600;6.138;2022-11-20T00:03:51;7.20;99.90
37646;DHT22;23489;49.600;6.138;2022-11-20T00:06:18;7.20;99.90
37646;DHT22;23489;49.600;6.138;2022-11-20T00:08:44;7.30;99.90
37646;DHT22;23489;49.600;6.138;2022-11-20T00:11:16;7.20;99.90
37646;DHT22;23489;49.600;6.138;2022-11-20T00:13:43;7.20;99.90
37646;DHT22;23489;49.600;6.138;2022-11-20T00:16:11;7.30;99.90
37646;DHT22;23489;49.600;6.138;2022-11-20T00:18:37;7.30;99.90
37646;DHT22;23489;49.600;6.138;2022-11-20T00:21:04;7.30;99.90
37646;DHT22;23489;49.600;6.138;2022-11-20T00:23:30;7.30;99.90
37646;DHT22;23489;49.600;6.138;2022-11-20T00:25:56;7.30;99.90
37646;DHT22;23489;49.600;6.138;2022-11-20T00:28:22;7.30;99.90
37646;DHT22;23489;49.600;6.138;2022-11-20T00:30:47;7.20;99.90
37646;DHT22;23489;49.600;6.138;2022-11-20T00:33:13;7.20;99.90
37646;DHT22;23489;49.600;6.138;2022-11-20T00:35:39;7.20;99.90
37646;DHT22;23489;49.600;6.138;2022-11-20T00:38:04;7.20;99.90
37646;DHT22;23489;49.600;6.138;2022-11-20T00:40:30;7.20;99.90
37646;DHT22;23489;49.600;6.138;2022-11-20T00:42:55;7.20;99.90
37646;DHT22;23489;49.600;6.138;2022-11-20T00:45:21;7.20;99.90
37646;DHT22;23489;49.600;6.138;2022-11-20T00:47:47;7.20;99.90
37646;DHT22;23489;49.600;6.138;2022-11-20T00:50:12;7.20;99.90
37646;DHT22;23489;49.600;6.138;2022-11-20T00:52:38;7.20;99.90
37646;DHT22;23489;49.600;6.138;2022-11-20T00:55:04;7.20;99.90
37646;DHT22;23489;49.600;6.138;2022-11-20T00:57:29;7.20;99.90
37646;DHT22;23489;49.600;6.138;2022-11-20T00:59:55;7.20;99.90
37646;DHT22;23489;49.600;6.138;2022-11-20T01:02:21;7.20;99.90
37646;DHT22;23489;49.600;6.138;2022-11-20T01:04:46;7.20;99.90
37646;DHT22;23489;49.600;6.138;2022-11-20T01:07:12;7.20;99.90
37646;DHT22;23489;49.600;6.138;2022-11-20T01:09:37;7.20;99.90
37646;DHT22;23489;49.600;6.138;2022-11-20T01:12:04;7.20;99.90
37646;DHT22;23489;49.600;6.138;2022-11-20T01:14:29;7.30;99.90
37646;DHT22;23489;49.600;6.138;2022-11-20T01:16:55;7.20;99.90
37646;DHT22;23489;49.600;6.138;2022-11-20T01:19:22;7.30;99.90
37646;DHT22;23489;49.600;6.138;2022-11-20T01:21:51;7.30;99.90
37646;DHT22;23489;49.600;6.138;2022-11-20T01:24:19;7.20;99.90
37646;DHT22;23489;49.600;6.138;2022-11-20T01:26:46;7.20;99.90
37646;DHT22;23489;49.600;6.138;2022-11-20T01:29:23;7.20;99.90
37646;DHT22;23489;49.600;6.138;2022-11-20T01:31:49;7.20;99.90
37646;DHT22;23489;49.600;6.138;2022-11-20T01:34:18;7.20;99.90
37646;DHT22;23489;49.600;6.138;2022-11-20T01:36:44;7.10;99.90
37646;DHT22;23489;49.600;6.138;2022-11-20T01:39:13;7.20;99.90
37646;DHT22;23489;49.600;6.138;2022-11-20T01:41:39;7.20;99.90
37646;DHT22;23489;49.600;6.138;2022-11-20T01:44:50;7.20;99.90
37646;DHT22;23489;49.600;6.138;2022-11-20T01:47:30;7.10;99.90
37646;DHT22;23489;49.600;6.138;2022-11-20T01:50:14;7.10;99.90
37646;DHT22;23489;49.600;6.138;2022-11-20T01:52:49;7.10;99.90
37646;DHT22;23489;49.600;6.138;2022-11-20T01:55:23;7.10;99.90
37646;DHT22;23489;49.600;6.138;2022-11-20T01:57:50;7.10;99.90
37646;DHT22;23489;49.600;6.138;2022-11-20T02:00:18;7.10;99.90
37646;DHT22;23489;49.600;6.138;2022-11-20T02:02:50;7.10;99.90
37646;DHT22;23489;49.600;6.138;2022-11-20T02:05:23;7.10;99.90
37646;DHT22;23489;49.600;6.138;2022-11-20T02:07:49;7.10;99.90
37646;DHT22;23489;49.600;6.138;2022-11-20T02:10:16;7.10;99.90
37646;DHT22;23489;49.600;6.138;2022-11-20T02:12:42;7.10;99.90
37646;DHT22;23489;49.600;6.138;2022-11-20T02:15:26;7.10;99.90
37646;DHT22;23489;49.600;6.138;2022-11-20T02:17:53;7.10;99.90
37646;DHT22;23489;49.600;6.138;2022-11-20T02:20:19;7.10;99.90
37646;DHT22;23489;49.600;6.138;2022-11-20T02:22:53;7.10;99.90
37646;DHT22;23489;49.600;6.138;2022-11-20T02:25:21;7.10;99.90
37646;DHT22;23489;49.600;6.138;2022-11-20T02:27:46;7.00;99.90
37646;DHT22;23489;49.600;6.138;2022-11-20T02:30:13;7.00;99.90
37646;DHT22;23489;49.600;6.138;2022-11-20T02:32:39;7.00;99.90
37646;DHT22;23489;49.600;6.138;2022-11-20T02:35:35;7.00;99.90
37646;DHT22;23489;49.600;6.138;2022-11-20T02:37:57;7.00;99.90
37646;DHT22;23489;49.600;6.138;2022-11-20T02:40:23;7.00;99.90
37646;DHT22;23489;49.600;6.138;2022-11-20T02:42:56;7.00;99.90
37646;DHT22;23489;49.600;6.138;2022-11-20T02:45:22;7.00;99.90
37646;DHT22;23489;49.600;6.138;2022-11-20T02:47:48;7.00;99.90
37646;DHT22;23489;49.600;6.138;2022-11-20T02:50:14;7.00;99.90
37646;DHT22;23489;49.600;6.138;2022-11-20T02:52:40;7.00;99.90
37646;DHT22;23489;49.600;6.138;2022-11-20T02:55:06;6.90;99.90
37646;DHT22;23489;49.600;6.138;2022-11-20T02:57:32;7.00;99.90
37646;DHT22;23489;49.600;6.138;2022-11-20T02:59:57;7.00;99.90
37646;DHT22;23489;49.600;6.138;2022-11-20T03:02:23;7.00;99.90
37646;DHT22;23489;49.600;6.138;2022-11-20T03:04:49;7.00;99.90
37646;DHT22;23489;49.600;6.138;2022-11-20T03:07:14;7.00;99.90
37646;DHT22;23489;49.600;6.138;2022-11-20T03:09:40;7.00;99.90
37646;DHT22;23489;49.600;6.138;2022-11-20T03:12:06;7.10;99.90
37646;DHT22;23489;49.600;6.138;2022-11-20T03:14:31;7.10;99.90
37646;DHT22;23489;49.600;6.138;2022-11-20T03:16:57;7.10;99.90
37646;DHT22;23489;49.600;6.138;2022-11-20T03:19:23;7.10;99.90
37646;DHT22;23489;49.600;6.138;2022-11-20T03:21:49;7.10;99.90
37646;DHT22;23489;49.600;6.138;2022-11-20T03:24:15;7.10;99.90
37646;DHT22;23489;49.600;6.138;2022-11-20T03:26:40;7.10;99.90
37646;DHT22;23489;49.600;6.138;2022-11-20T03:29:06;7.10;99.90
37646;DHT22;23489;49.600;6.138;2022-11-20T03:31:37;7.10;99.90
37646;DHT22;23489;49.600;6.138;2022-11-20T03:34:06;7.10;99.90
37646;DHT22;23489;49.600;6.138;2022-11-20T03:36:33;7.10;99.90
37646;DHT22;23489;49.600;6.138;2022-11-20T03:38:59;7.10;99.90
37646;DHT22;23489;49.600;6.138;2022-11-20T03:41:27;7.10;99.90
37646;DHT22;23489;49.600;6.138;2022-11-20T03:43:55;7.10;99.90
37646;DHT22;23489;49.600;6.138;2022-11-20T03:46:21;7.00;99.90
37646;DHT22;23489;49.600;6.138;2022-11-20T03:48:47;7.00;99.90
37646;DHT22;23489;49.600;6.138;2022-11-20T03:51:16;7.00;99.90
37646;DHT22;23489;49.600;6.138;2022-11-20T03:53:45;7.00;99.90
37646;DHT22;23489;49.600;6.138;2022-11-20T03:56:12;7.00;99.90
37646;DHT22;23489;49.600;6.138;2022-11-20T03:58:39;7.00;99.90
37646;DHT22;23489;49.600;6.138;2022-11-20T04:01:07;7.00;99.90
37646;DHT22;23489;49.600;6.138;2022-11-20T04:03:33;7.00;99.90
37646;DHT22;23489;49.600;6.138;2022-11-20T04:06:14;7.00;99.90
37646;DHT22;23489;49.600;6.138;2022-11-20T04:08:41;7.00;99.90
37646;DHT22;23489;49.600;6.138;2022-11-20T04:11:20;7.00;99.90
37646;DHT22;23489;49.600;6.138;2022-11-20T04:13:51;7.00;99.90
37646;DHT22;23489;49.600;6.138;2022-11-20T04:16:18;7.00;99.90
37646;DHT22;23489;49.600;6.138;2022-11-20T04:18:44;7.00;99.90
37646;DHT22;23489;49.600;6.138;2022-11-20T04:21:10;7.00;99.90
37646;DHT22;23489;49.600;6.138;2022-11-20T04:23:36;7.10;99.90
37646;DHT22;23489;49.600;6.138;2022-11-20T04:26:10;7.10;99.90
37646;DHT22;23489;49.600;6.138;2022-11-20T04:28:37;7.10;99.90
37646;DHT22;23489;49.600;6.138;2022-11-20T04:33:29;7.10;99.90
37646;DHT22;23489;49.600;6.138;2022-11-20T04:35:55;7.20;99.90
37646;DHT22;23489;49.600;6.138;2022-11-20T04:38:25;7.10;99.90
37646;DHT22;23489;49.600;6.138;2022-11-20T04:40:50;7.10;99.90
37646;DHT22;23489;49.600;6.138;2022-11-20T04:43:16;7.20;99.90
37646;DHT22;23489;49.600;6.138;2022-11-20T04:45:41;7.10;99.90
37646;DHT22;23489;49.600;6.138;2022-11-20T04:48:07;7.10;99.90
37646;DHT22;23489;49.600;6.138;2022-11-20T04:50:32;7.10;99.90
37646;DHT22;23489;49.600;6.138;2022-11-20T04:52:58;7.10;99.90
37646;DHT22;23489;49.600;6.138;2022-11-20T04:55:24;7.10;99.90
37646;DHT22;23489;49.600;6.138;2022-11-20T04:57:50;7.10;99.90
37646;DHT22;23489;49.600;6.138;2022-11-20T05:00:16;7.10;99.90
37646;DHT22;23489;49.600;6.138;2022-11-20T05:02:42;7.10;99.90
37646;DHT22;23489;49.600;6.138;2022-11-20T05:05:08;7.10;99.90
37646;DHT22;23489;49.600;6.138;2022-11-20T05:07:33;7.10;99.90
37646;DHT22;23489;49.600;6.138;2022-11-20T05:09:59;7.10;99.90
37646;DHT22;23489;49.600;6.138;2022-11-20T05:12:25;7.10;99.90
37646;DHT22;23489;49.600;6.138;2022-11-20T05:14:50;7.10;99.90
37646;DHT22;23489;49.600;6.138;2022-11-20T05:17:16;7.10;99.90
37646;DHT22;23489;49.600;6.138;2022-11-20T05:19:41;7.10;99.90
37646;DHT22;23489;49.600;6.138;2022-11-20T05:22:07;7.00;99.90
37646;DHT22;23489;49.600;6.138;2022-11-20T05:24:33;7.00;99.90
37646;DHT22;23489;49.600;6.138;2022-11-20T05:26:58;6.90;99.90
37646;DHT22;23489;49.600;6.138;2022-11-20T05:29:24;6.90;99.90
37646;DHT22;23489;49.600;6.138;2022-11-20T05:31:49;6.90;99.90
37646;DHT22;23489;49.600;6.138;2022-11-20T05:34:15;6.90;99.90
37646;DHT22;23489;49.600;6.138;2022-11-20T05:36:41;6.90;99.90
37646;DHT22;23489;49.600;6.138;2022-11-20T05:39:06;6.90;99.90
37646;DHT22;23489;49.600;6.138;2022-11-20T05:41:33;6.90;99.90
37646;DHT22;23489;49.600;6.138;2022-11-20T05:43:58;6.90;99.90
37646;DHT22;23489;49.600;6.138;2022-11-20T05:46:24;6.80;99.90
37646;DHT22;23489;49.600;6.138;2022-11-20T05:48:50;6.80;99.90
37646;DHT22;23489;49.600;6.138;2022-11-20T05:51:18;6.80;99.90
37646;DHT22;23489;49.600;6.138;2022-11-20T05:53:44;6.80;99.90
37646;DHT22;23489;49.600;6.138;2022-11-20T05:56:13;6.80;99.90
37646;DHT22;23489;49.600;6.138;2022-11-20T05:58:39;6.80;99.90
37646;DHT22;23489;49.600;6.138;2022-11-20T06:03:33;6.80;99.90
37646;DHT22;23489;49.600;6.138;2022-11-20T06:06:00;6.90;99.90
37646;DHT22;23489;49.600;6.138;2022-11-20T06:08:28;6.90;99.90
37646;DHT22;23489;49.600;6.138;2022-11-20T06:10:54;6.90;99.90
37646;DHT22;23489;49.600;6.138;2022-11-20T06:13:19;6.90;99.90
37646;DHT22;23489;49.600;6.138;2022-11-20T06:15:49;6.90;99.90
37646;DHT22;23489;49.600;6.138;2022-11-20T06:18:15;6.90;99.90
37646;DHT22;23489;49.600;6.138;2022-11-20T06:20:41;6.80;99.90
37646;DHT22;23489;49.600;6.138;2022-11-20T06:23:06;6.80;99.90
37646;DHT22;23489;49.600;6.138;2022-11-20T06:25:32;6.80;99.90
37646;DHT22;23489;49.600;6.138;2022-11-20T06:27:58;6.80;99.90
37646;DHT22;23489;49.600;6.138;2022-11-20T06:30:23;6.80;99.90
37646;DHT22;23489;49.600;6.138;2022-11-20T06:32:49;6.90;99.90
37646;DHT22;23489;49.600;6.138;2022-11-20T06:35:14;6.80;99.90
37646;DHT22;23489;49.600;6.138;2022-11-20T06:37:40;6.80;99.90
37646;DHT22;23489;49.600;6.138;2022-11-20T06:40:06;6.80;99.90
37646;DHT22;23489;49.600;6.138;2022-11-20T06:42:32;6.90;99.90
37646;DHT22;23489;49.600;6.138;2022-11-20T06:44:58;6.90;99.90
37646;DHT22;23489;49.600;6.138;2022-11-20T06:47:23;6.90;99.90
37646;DHT22;23489;49.600;6.138;2022-11-20T06:49:49;6.90;99.90
37646;DHT22;23489;49.600;6.138;2022-11-20T06:52:14;6.90;99.90
37646;DHT22;23489;49.600;6.138;2022-11-20T06:54:40;6.90;99.90
37646;DHT22;23489;49.600;6.138;2022-11-20T06:57:06;6.90;99.90
37646;DHT22;23489;49.600;6.138;2022-11-20T06:59:31;6.90;99.90
37646;DHT22;23489;49.600;6.138;2022-11-20T07:01:57;6.90;99.90
37646;DHT22;23489;49.600;6.138;2022-11-20T07:04:22;6.90;99.90
37646;DHT22;23489;49.600;6.138;2022-11-20T07:06:48;6.90;99.90
37646;DHT22;23489;49.600;6.138;2022-11-20T07:09:14;6.90;99.90
37646;DHT22;23489;49.600;6.138;2022-11-20T07:11:40;6.90;99.90
37646;DHT22;23489;49.600;6.138;2022-11-20T07:14:05;6.90;99.90
37646;DHT22;23489;49.600;6.138;2022-11-20T07:16:31;6.90;99.90
37646;DHT22;23489;49.600;6.138;2022-11-20T07:18:56;6.90;99.90
37646;DHT22;23489;49.600;6.138;2022-11-20T07:21:22;6.90;99.90
37646;DHT22;23489;49.600;6.138;2022-11-20T07:23:48;6.90;99.90
37646;DHT22;23489;49.600;6.138;2022-11-20T07:26:13;7.00;99.90
37646;DHT22;23489;49.600;6.138;2022-11-20T07:28:39;7.00;99.90
37646;DHT22;23489;49.600;6.138;2022-11-20T07:31:05;7.00;99.90
37646;DHT22;23489;49.600;6.138;2022-11-20T07:33:32;7.00;99.90
37646;DHT22;23489;49.600;6.138;2022-11-20T07:36:01;7.00;99.90
37646;DHT22;23489;49.600;6.138;2022-11-20T07:38:27;7.00;99.90
37646;DHT22;23489;49.600;6.138;2022-11-20T07:40:56;7.00;99.90
37646;DHT22;23489;49.600;6.138;2022-11-20T07:43:23;7.00;99.90
37646;DHT22;23489;49.600;6.138;2022-11-20T07:45:50;7.00;99.90
37646;DHT22;23489;49.600;6.138;2022-11-20T07:48:16;7.00;99.90
37646;DHT22;23489;49.600;6.138;2022-11-20T07:50:41;6.90;99.90
37646;DHT22;23489;49.600;6.138;2022-11-20T07:53:07;6.90;99.90
37646;DHT22;23489;49.600;6.138;2022-11-20T07:55:33;6.90;99.90
37646;DHT22;23489;49.600;6.138;2022-11-20T07:57:59;6.90;99.90
37646;DHT22;23489;49.600;6.138;2022-11-20T08:00:26;6.90;99.90
37646;DHT22;23489;49.600;6.138;2022-11-20T08:02:52;7.00;99.90
37646;DHT22;23489;49.600;6.138;2022-11-20T08:05:18;7.00;99.90
37646;DHT22;23489;49.600;6.138;2022-11-20T08:07:44;7.00;99.90
37646;DHT22;23489;49.600;6.138;2022-11-20T08:10:12;7.10;99.90
37646;DHT22;23489;49.600;6.138;2022-11-20T08:12:49;7.00;99.90
37646;DHT22;23489;49.600;6.138;2022-11-20T08:15:34;7.10;99.90
37646;DHT22;23489;49.600;6.138;2022-11-20T08:18:05;7.10;99.90
37646;DHT22;23489;49.600;6.138;2022-11-20T08:20:32;7.10;99.90
37646;DHT22;23489;49.600;6.138;2022-11-20T08:22:59;7.10;99.90
37646;DHT22;23489;49.600;6.138;2022-11-20T08:25:26;7.10;99.90
37646;DHT22;23489;49.600;6.138;2022-11-20T08:27:51;7.20;99.90
37646;DHT22;23489;49.600;6.138;2022-11-20T08:30:17;7.20;99.90
37646;DHT22;23489;49.600;6.138;2022-11-20T08:32:43;7.20;99.90
37646;DHT22;23489;49.600;6.138;2022-11-20T08:35:08;7.30;99.90
37646;DHT22;23489;49.600;6.138;2022-11-20T08:37:34;7.30;99.90
37646;DHT22;23489;49.600;6.138;2022-11-20T08:40:00;7.20;99.90
37646;DHT22;23489;49.600;6.138;2022-11-20T08:42:25;7.30;99.90
37646;DHT22;23489;49.600;6.138;2022-11-20T08:44:51;7.20;99.90
37646;DHT22;23489;49.600;6.138;2022-11-20T08:47:16;7.20;99.90
37646;DHT22;23489;49.600;6.138;2022-11-20T08:49:42;7.30;99.90
37646;DHT22;23489;49.600;6.138;2022-11-20T08:52:08;7.30;99.90
37646;DHT22;23489;49.600;6.138;2022-11-20T08:54:33;7.30;99.90
37646;DHT22;23489;49.600;6.138;2022-11-20T08:56:59;7.20;99.90
37646;DHT22;23489;49.600;6.138;2022-11-20T08:59:24;7.20;99.90
37646;DHT22;23489;49.600;6.138;2022-11-20T09:01:50;7.10;99.90
37646;DHT22;23489;49.600;6.138;2022-11-20T09:04:16;7.10;99.90
37646;DHT22;23489;49.600;6.138;2022-11-20T09:06:41;7.30;99.90
37646;DHT22;23489;49.600;6.138;2022-11-20T09:09:07;7.40;99.90
37646;DHT22;23489;49.600;6.138;2022-11-20T09:11:34;7.60;99.90
37646;DHT22;23489;49.600;6.138;2022-11-20T09:13:59;7.80;99.90
37646;DHT22;23489;49.600;6.138;2022-11-20T09:16:25;7.90;99.90
37646;DHT22;23489;49.600;6.138;2022-11-20T09:18:51;8.00;99.90
37646;DHT22;23489;49.600;6.138;2022-11-20T09:21:16;7.90;99.90
37646;DHT22;23489;49.600;6.138;2022-11-20T09:23:42;7.90;99.90
37646;DHT22;23489;49.600;6.138;2022-11-20T09:26:11;8.00;99.90
37646;DHT22;23489;49.600;6.138;2022-11-20T09:28:37;8.20;99.90
37646;DHT22;23489;49.600;6.138;2022-11-20T09:31:07;8.30;99.90
37646;DHT22;23489;49.600;6.138;2022-11-20T09:33:32;8.70;99.90
37646;DHT22;23489;49.600;6.138;2022-11-20T09:35:58;9.10;99.90
37646;DHT22;23489;49.600;6.138;2022-11-20T09:38:24;9.50;99.90
37646;DHT22;23489;49.600;6.138;2022-11-20T09:40:52;9.70;99.90
37646;DHT22;23489;49.600;6.138;2022-11-20T09:43:28;9.80;99.90
37646;DHT22;23489;49.600;6.138;2022-11-20T09:46:14;9.70;99.90
37646;DHT22;23489;49.600;6.138;2022-11-20T09:52:14;10.90;99.90
37646;DHT22;23489;49.600;6.138;2022-11-20T09:56:41;12.20;99.90
37646;DHT22;23489;49.600;6.138;2022-11-20T10:01:51;11.40;99.90
37646;DHT22;23489;49.600;6.138;2022-11-20T10:04:19;10.90;99.90
37646;DHT22;23489;49.600;6.138;2022-11-20T10:09:38;10.00;99.90
37646;DHT22;23489;49.600;6.138;2022-11-20T10:30:56;11.30;99.90
37646;DHT22;23489;49.600;6.138;2022-11-20T10:33:22;11.50;99.90
37646;DHT22;23489;49.600;6.138;2022-11-20T10:36:00;11.30;99.90
37646;DHT22;23489;49.600;6.138;2022-11-20T10:38:40;11.20;99.90
37646;DHT22;23489;49.600;6.138;2022-11-20T10:41:07;11.00;99.90
37646;DHT22;23489;49.600;6.138;2022-11-20T10:46:35;10.70;99.90
37646;DHT22;23489;49.600;6.138;2022-11-20T10:49:14;10.70;99.90
37646;DHT22;23489;49.600;6.138;2022-11-20T11:00:16;9.80;99.90
37646;DHT22;23489;49.600;6.138;2022-11-20T11:02:52;9.70;99.90
37646;DHT22;23489;49.600;6.138;2022-11-20T11:05:50;9.70;99.90
37646;DHT22;23489;49.600;6.138;2022-11-20T11:08:18;9.70;99.90
37646;DHT22;23489;49.600;6.138;2022-11-20T11:10:51;9.40;99.90
37646;DHT22;23489;49.600;6.138;2022-11-20T11:13:30;9.40;99.90
37646;DHT22;23489;49.600;6.138;2022-11-20T11:15:58;9.60;99.90
37646;DHT22;23489;49.600;6.138;2022-11-20T11:18:26;9.80;99.90
37646;DHT22;23489;49.600;6.138;2022-11-20T11:20:53;10.00;99.90
37646;DHT22;23489;49.600;6.138;2022-11-20T11:23:39;10.00;99.90
37646;DHT22;23489;49.600;6.138;2022-11-20T11:26:20;9.90;99.90
37646;DHT22;23489;49.600;6.138;2022-11-20T11:29:04;10.00;99.90
37646;DHT22;23489;49.600;6.138;2022-11-20T11:31:34;10.10;99.90
37646;DHT22;23489;49.600;6.138;2022-11-20T11:34:13;9.90;99.90
37646;DHT22;23489;49.600;6.138;2022-11-20T11:36:40;9.50;99.90
37646;DHT22;23489;49.600;6.138;2022-11-20T11:39:14;9.30;99.90
37646;DHT22;23489;49.600;6.138;2022-11-20T11:41:40;9.20;99.90
37646;DHT22;23489;49.600;6.138;2022-11-20T11:44:27;9.40;99.90
37646;DHT22;23489;49.600;6.138;2022-11-20T11:47:22;9.30;99.90
37646;DHT22;23489;49.600;6.138;2022-11-20T11:49:48;9.40;99.90
37646;DHT22;23489;49.600;6.138;2022-11-20T11:52:18;9.10;99.90
37646;DHT22;23489;49.600;6.138;2022-11-20T12:00:16;9.00;99.90
37646;DHT22;23489;49.600;6.138;2022-11-20T12:03:00;9.20;99.90
37646;DHT22;23489;49.600;6.138;2022-11-20T12:05:51;9.40;99.90
37646;DHT22;23489;49.600;6.138;2022-11-20T12:08:32;9.30;99.90
37646;DHT22;23489;49.600;6.138;2022-11-20T12:14:01;9.10;99.90
37646;DHT22;23489;49.600;6.138;2022-11-20T12:16:34;8.90;99.90
37646;DHT22;23489;49.600;6.138;2022-11-20T12:19:01;8.70;99.90
37646;DHT22;23489;49.600;6.138;2022-11-20T12:30:04;8.70;99.90
37646;DHT22;23489;49.600;6.138;2022-11-20T12:43:24;8.70;99.90
37646;DHT22;23489;49.600;6.138;2022-11-20T12:49:04;8.70;99.90
37646;DHT22;23489;49.600;6.138;2022-11-20T12:52:02;8.60;99.90
37646;DHT22;23489;49.600;6.138;2022-11-20T13:07:51;8.70;99.90
37646;DHT22;23489;49.600;6.138;2022-11-20T13:10:43;8.70;99.90
37646;DHT22;23489;49.600;6.138;2022-11-20T13:15:59;8.60;99.90
37646;DHT22;23489;49.600;6.138;2022-11-20T13:18:27;8.60;99.90
37646;DHT22;23489;49.600;6.138;2022-11-20T13:20:58;8.50;99.90
37646;DHT22;23489;49.600;6.138;2022-11-20T13:23:25;8.40;99.90
37646;DHT22;23489;49.600;6.138;2022-11-20T13:26:06;8.30;99.90
37646;DHT22;23489;49.600;6.138;2022-11-20T13:28:39;8.30;99.90
37646;DHT22;23489;49.600;6.138;2022-11-20T13:31:24;8.30;99.90
37646;DHT22;23489;49.600;6.138;2022-11-20T13:33:54;8.20;99.90
37646;DHT22;23489;49.600;6.138;2022-11-20T13:36:24;8.10;99.90
37646;DHT22;23489;49.600;6.138;2022-11-20T13:38:54;8.10;99.90
37646;DHT22;23489;49.600;6.138;2022-11-20T13:41:35;8.20;99.90
37646;DHT22;23489;49.600;6.138;2022-11-20T13:44:23;8.10;99.90
37646;DHT22;23489;49.600;6.138;2022-11-20T13:46:49;8.20;99.90
37646;DHT22;23489;49.600;6.138;2022-11-20T13:49:38;8.30;99.90
37646;DHT22;23489;49.600;6.138;2022-11-20T13:58:05;8.20;99.90
37646;DHT22;23489;49.600;6.138;2022-11-20T14:00:33;8.30;99.90
37646;DHT22;23489;49.600;6.138;2022-11-20T14:03:20;8.40;99.90
37646;DHT22;23489;49.600;6.138;2022-11-20T14:05:52;8.40;99.90
37646;DHT22;23489;49.600;6.138;2022-11-20T14:16:27;8.20;99.90
37646;DHT22;23489;49.600;6.138;2022-11-20T14:18:54;8.20;99.90
37646;DHT22;23489;49.600;6.138;2022-11-20T14:21:29;8.10;99.90
37646;DHT22;23489;49.600;6.138;2022-11-20T14:24:05;8.00;99.90
37646;DHT22;23489;49.600;6.138;2022-11-20T14:26:31;7.90;99.90
37646;DHT22;23489;49.600;6.138;2022-11-20T14:28:57;7.80;99.90
37646;DHT22;23489;49.600;6.138;2022-11-20T14:31:25;7.80;99.90
37646;DHT22;23489;49.600;6.138;2022-11-20T14:33:55;7.70;99.90
37646;DHT22;23489;49.600;6.138;2022-11-20T14:36:24;7.80;99.90
37646;DHT22;23489;49.600;6.138;2022-11-20T14:38:51;7.70;99.90
37646;DHT22;23489;49.600;6.138;2022-11-20T14:41:26;7.70;99.90
37646;DHT22;23489;49.600;6.138;2022-11-20T14:43:59;7.70;99.90
37646;DHT22;23489;49.600;6.138;2022-11-20T14:46:25;7.60;99.90
37646;DHT22;23489;49.600;6.138;2022-11-20T14:48:54;7.60;99.90
37646;DHT22;23489;49.600;6.138;2022-11-20T14:51:32;7.50;99.90
37646;DHT22;23489;49.600;6.138;2022-11-20T14:54:28;7.40;99.90
37646;DHT22;23489;49.600;6.138;2022-11-20T14:56:59;7.40;99.90
37646;DHT22;23489;49.600;6.138;2022-11-20T14:59:34;7.40;99.90
37646;DHT22;23489;49.600;6.138;2022-11-20T15:02:11;7.40;99.90
37646;DHT22;23489;49.600;6.138;2022-11-20T15:04:50;7.30;99.90
37646;DHT22;23489;49.600;6.138;2022-11-20T15:07:27;7.30;99.90
37646;DHT22;23489;49.600;6.138;2022-11-20T15:10:01;7.30;99.90
37646;DHT22;23489;49.600;6.138;2022-11-20T15:12:27;7.20;99.90
37646;DHT22;23489;49.600;6.138;2022-11-20T15:14:52;7.20;99.90
37646;DHT22;23489;49.600;6.138;2022-11-20T15:17:18;7.20;99.90
37646;DHT22;23489;49.600;6.138;2022-11-20T15:19:44;7.10;99.90
37646;DHT22;23489;49.600;6.138;2022-11-20T15:22:12;7.10;99.90
37646;DHT22;23489;49.600;6.138;2022-11-20T15:24:38;7.10;99.90
37646;DHT22;23489;49.600;6.138;2022-11-20T15:27:04;7.00;99.90
37646;DHT22;23489;49.600;6.138;2022-11-20T15:29:30;7.00;99.90
37646;DHT22;23489;49.600;6.138;2022-11-20T15:31:56;6.90;99.90
37646;DHT22;23489;49.600;6.138;2022-11-20T15:34:21;6.80;99.90
37646;DHT22;23489;49.600;6.138;2022-11-20T15:36:47;6.80;99.90
37646;DHT22;23489;49.600;6.138;2022-11-20T15:39:13;6.70;99.90
37646;DHT22;23489;49.600;6.138;2022-11-20T15:41:39;6.70;99.90
37646;DHT22;23489;49.600;6.138;2022-11-20T15:44:05;6.60;99.90
37646;DHT22;23489;49.600;6.138;2022-11-20T15:46:33;6.60;99.90
37646;DHT22;23489;49.600;6.138;2022-11-20T15:49:03;6.60;99.90
37646;DHT22;23489;49.600;6.138;2022-11-20T15:51:36;6.60;99.90
37646;DHT22;23489;49.600;6.138;2022-11-20T15:54:13;6.60;99.90
37646;DHT22;23489;49.600;6.138;2022-11-20T15:56:39;6.60;99.90
37646;DHT22;23489;49.600;6.138;2022-11-20T15:59:05;6.50;99.90
37646;DHT22;23489;49.600;6.138;2022-11-20T16:01:31;6.50;99.90
37646;DHT22;23489;49.600;6.138;2022-11-20T16:03:56;6.50;99.90
37646;DHT22;23489;49.600;6.138;2022-11-20T16:06:22;6.40;99.90
37646;DHT22;23489;49.600;6.138;2022-11-20T16:08:47;6.40;99.90
37646;DHT22;23489;49.600;6.138;2022-11-20T16:11:15;6.40;99.90
37646;DHT22;23489;49.600;6.138;2022-11-20T16:13:41;6.30;99.90
37646;DHT22;23489;49.600;6.138;2022-11-20T16:16:29;6.30;99.90
37646;DHT22;23489;49.600;6.138;2022-11-20T16:18:56;6.30;99.90
37646;DHT22;23489;49.600;6.138;2022-11-20T16:21:23;6.30;99.90
37646;DHT22;23489;49.600;6.138;2022-11-20T16:24:05;6.30;99.90
37646;DHT22;23489;49.600;6.138;2022-11-20T16:26:32;6.20;99.90
37646;DHT22;23489;49.600;6.138;2022-11-20T16:28:59;6.20;99.90
37646;DHT22;23489;49.600;6.138;2022-11-20T16:31:25;6.20;99.90
37646;DHT22;23489;49.600;6.138;2022-11-20T16:33:55;6.20;99.90
37646;DHT22;23489;49.600;6.138;2022-11-20T16:36:23;6.20;99.90
37646;DHT22;23489;49.600;6.138;2022-11-20T16:38:54;6.20;99.90
37646;DHT22;23489;49.600;6.138;2022-11-20T16:41:21;6.20;99.90
37646;DHT22;23489;49.600;6.138;2022-11-20T16:43:48;6.20;99.90
37646;DHT22;23489;49.600;6.138;2022-11-20T16:46:15;6.20;99.90
37646;DHT22;23489;49.600;6.138;2022-11-20T16:48:41;6.30;99.90
37646;DHT22;23489;49.600;6.138;2022-11-20T16:51:11;6.30;99.90
37646;DHT22;23489;49.600;6.138;2022-11-20T16:53:38;6.30;99.90
37646;DHT22;23489;49.600;6.138;2022-11-20T16:56:11;6.30;99.90
37646;DHT22;23489;49.600;6.138;2022-11-20T16:58:38;6.30;99.90
37646;DHT22;23489;49.600;6.138;2022-11-20T17:01:08;6.30;99.90
37646;DHT22;23489;49.600;6.138;2022-11-20T17:03:36;6.30;99.90
37646;DHT22;23489;49.600;6.138;2022-11-20T17:06:19;6.40;99.90
37646;DHT22;23489;49.600;6.138;2022-11-20T17:08:46;6.30;99.90
37646;DHT22;23489;49.600;6.138;2022-11-20T17:11:14;6.30;99.90
37646;DHT22;23489;49.600;6.138;2022-11-20T17:13:40;6.40;99.90
37646;DHT22;23489;49.600;6.138;2022-11-20T17:16:11;6.30;99.90
37646;DHT22;23489;49.600;6.138;2022-11-20T17:18:38;6.40;99.90
37646;DHT22;23489;49.600;6.138;2022-11-20T17:21:04;6.40;99.90
37646;DHT22;23489;49.600;6.138;2022-11-20T17:23:34;6.40;99.90
37646;DHT22;23489;49.600;6.138;2022-11-20T17:26:09;6.40;99.90
37646;DHT22;23489;49.600;6.138;2022-11-20T17:28:36;6.50;99.90
37646;DHT22;23489;49.600;6.138;2022-11-20T17:31:08;6.60;99.90
37646;DHT22;23489;49.600;6.138;2022-11-20T17:33:38;6.60;99.90
37646;DHT22;23489;49.600;6.138;2022-11-20T17:36:06;6.60;99.90
37646;DHT22;23489;49.600;6.138;2022-11-20T17:38:33;6.60;99.90
37646;DHT22;23489;49.600;6.138;2022-11-20T17:41:04;6.50;99.90
37646;DHT22;23489;49.600;6.138;2022-11-20T17:43:31;6.50;99.90